Time;durP1;ratioP1;P1;durP2;ratioP2;P2;SDS_P1;SDS_P2;PMS_P1;PMS_P2;Temp;Humidity;BMP_temperature;BMP_pressure;BME280_temperature;BME280_humidity;BME280_pressure;Samples;Min_cycle;Max_cycle;Signal;HPM_P1;HPM_P2
2022/10/31 00:00:15;;;;;;;;;;;;;;;;;;4997568;28;4900;-58
2022/10/31 00:02:49;;;;;;;;;;;;;;;;;;4996494;28;4562;-59
2022/10/31 00:05:14;;;;;;;;;;;;;;;;;;5000928;28;1910;-59
2022/10/31 00:07:39;;;;;;;;;;;;;;;;;;5013548;28;4838;-58
2022/10/31 00:13:07;;;;;;;;;;;;;;;;;;5017092;28;4860;-59
2022/10/31 00:15:36;;;;;;;;;;;;;;;;;;5016435;28;5012;-58
2022/10/31 00:21:04;;;;;;;;;;;;;;;;;;5016849;28;5103;-58
2022/10/31 00:26:32;;;;;;;;;;;;;;;;;;5016709;28;4790;-59
2022/10/31 00:32:00;;;;;;;;;;;;;;;;;;5018075;28;4587;-58
2022/10/31 00:37:46;;;;;;;;;;;;;;;;;;5016954;28;4661;-58
2022/10/31 00:43:33;;;;;;;;;;;;;;;;;;5016414;28;5074;-58
2022/10/31 00:45:58;;;;;;;;;;;;;;;;;;5017241;28;5049;-59
2022/10/31 00:51:26;;;;;;;;;;;;;;;;;;5016719;28;5150;-58
2022/10/31 00:56:54;;;;;;;;;;;;;;;;;;5016196;28;4682;-59
2022/10/31 01:08:27;;;;;;;;;;;;;;;;;;5016189;28;5096;-59
2022/10/31 01:13:55;;;;;;;;;;;;;;;;;;5016772;28;4606;-59
2022/10/31 01:16:21;;;;;;;;;;;;;;;;;;5015558;28;5035;-60
2022/10/31 01:24:52;;;;;;;;;;;;;;;;;;5016012;28;4928;-59
2022/10/31 01:27:17;;;;;;;;;;;;;;;;;;5015762;28;4632;-60
2022/10/31 01:38:51;;;;;;;;;;;;;;;;;;5015580;28;4992;-59
2022/10/31 01:44:19;;;;;;;;;;;;;;;;;;5014184;28;4497;-59
2022/10/31 01:47:16;;;;;;;;;;;;;;;;;;4995972;28;1193;-59
2022/10/31 01:49:54;;;;;;;;;;;;;;;;;;4994543;28;4628;-59
2022/10/31 01:52:32;;;;;;;;;;;;;;;;;;4978106;28;5212;-59
2022/10/31 01:58:11;;;;;;;;;;;;;;;;;;4995349;28;5022;-59
2022/10/31 02:00:37;;;;;;;;;;;;;;;;;;4976715;28;4955;-60
2022/10/31 02:06:33;;;;;;;;;;;;;;;;;;4994524;28;4994;-59
2022/10/31 02:12:19;;;;;;;;;;;;;;;;;;4995418;28;4712;-59
2022/10/31 02:14:44;;;;;;;;;;;;;;;;;;4994966;28;4447;-59
2022/10/31 02:20:15;;;;;;;;;;;;;;;;;;4996367;28;4486;-59
2022/10/31 02:23:16;;;;;;;;;;;;;;;;;;4996000;28;1086;-59
2022/10/31 02:28:50;;;;;;;;;;;;;;;;;;4995972;28;4581;-58
2022/10/31 02:31:22;;;;;;;;;;;;;;;;;;4975661;28;5413;-58
2022/10/31 02:33:51;;;;;;;;;;;;;;;;;;4990895;28;4670;-58
2022/10/31 02:36:38;;;;;;;;;;;;;;;;;;4975583;28;5118;-58
2022/10/31 02:39:22;;;;;;;;;;;;;;;;;;4977342;28;4899;-58
2022/10/31 02:45:07;;;;;;;;;;;;;;;;;;4996808;28;5108;-59
2022/10/31 02:50:36;;;;;;;;;;;;;;;;;;4994719;28;4616;-59
2022/10/31 02:56:25;;;;;;;;;;;;;;;;;;4995667;28;4564;-58
2022/10/31 02:58:55;;;;;;;;;;;;;;;;;;4994684;28;5200;-58
2022/10/31 03:01:23;;;;;;;;;;;;;;;;;;4977126;28;5092;-58
2022/10/31 03:03:53;;;;;;;;;;;;;;;;;;4991040;28;4455;-58
2022/10/31 03:06:33;;;;;;;;;;;;;;;;;;4976163;28;5268;-58
2022/10/31 03:09:04;;;;;;;;;;;;;;;;;;4978411;28;5002;-58
2022/10/31 03:14:42;;;;;;;;;;;;;;;;;;4998660;28;5233;-59
2022/10/31 03:20:10;;;;;;;;;;;;;;;;;;4998434;28;4536;-59
2022/10/31 03:25:38;;;;;;;;;;;;;;;;;;4999025;28;4984;-59
2022/10/31 03:31:06;;;;;;;;;;;;;;;;;;4997295;28;4423;-58
2022/10/31 03:33:32;;;;;;;;;;;;;;;;;;4977156;28;4960;-62
2022/10/31 03:35:58;;;;;;;;;;;;;;;;;;4976204;28;4799;-60
2022/10/31 03:38:23;;;;;;;;;;;;;;;;;;4993921;28;4847;-59
2022/10/31 03:40:49;;;;;;;;;;;;;;;;;;4995442;28;1733;-59
2022/10/31 03:46:23;;;;;;;;;;;;;;;;;;5007371;28;5105;-58
2022/10/31 03:48:49;;;;;;;;;;;;;;;;;;4973905;28;4449;-58
2022/10/31 03:51:36;;;;;;;;;;;;;;;;;;4967433;28;5133;-58
2022/10/31 03:54:03;;;;;;;;;;;;;;;;;;4956849;28;4969;-61
2022/10/31 03:56:38;;;;;;;;;;;;;;;;;;4940497;28;5010;-60
2022/10/31 03:59:08;;;;;;;;;;;;;;;;;;4989519;28;1557;-59
2022/10/31 04:01:34;;;;;;;;;;;;;;;;;;4974234;28;5069;-60
2022/10/31 04:04:00;;;;;;;;;;;;;;;;;;4972854;28;5111;-61
2022/10/31 04:06:25;;;;;;;;;;;;;;;;;;4975974;28;5138;-60
2022/10/31 04:09:00;;;;;;;;;;;;;;;;;;4975658;28;4647;-59
2022/10/31 04:11:27;;;;;;;;;;;;;;;;;;4992596;28;5179;-60
2022/10/31 04:13:52;;;;;;;;;;;;;;;;;;4972125;28;1004;-64
2022/10/31 04:16:18;;;;;;;;;;;;;;;;;;4992323;28;5190;-58
2022/10/31 04:18:43;;;;;;;;;;;;;;;;;;4989779;28;5268;-59
2022/10/31 04:21:08;;;;;;;;;;;;;;;;;;4973839;28;5937;-59
2022/10/31 04:23:34;;;;;;;;;;;;;;;;;;4992080;28;4743;-58
2022/10/31 04:26:02;;;;;;;;;;;;;;;;;;4974830;28;1812;-58
2022/10/31 04:28:28;;;;;;;;;;;;;;;;;;4994438;28;5919;-58
2022/10/31 04:30:53;;;;;;;;;;;;;;;;;;4971957;28;5002;-62
2022/10/31 04:33:18;;;;;;;;;;;;;;;;;;4974019;28;5391;-58
2022/10/31 04:35:43;;;;;;;;;;;;;;;;;;4974201;28;4978;-59
2022/10/31 04:38:09;;;;;;;;;;;;;;;;;;4974490;28;907;-59
2022/10/31 04:40:34;;;;;;;;;;;;;;;;;;4983983;28;5016;-59
2022/10/31 04:43:02;;;;;;;;;;;;;;;;;;4993574;28;4913;-58
2022/10/31 04:45:27;;;;;;;;;;;;;;;;;;4993757;28;5119;-59
2022/10/31 04:50:58;;;;;;;;;;;;;;;;;;4991292;28;4482;-58
2022/10/31 04:53:29;;;;;;;;;;;;;;;;;;4991791;28;5098;-60
2022/10/31 04:55:54;;;;;;;;;;;;;;;;;;4993723;28;1268;-58
2022/10/31 04:58:20;;;;;;;;;;;;;;;;;;5011829;28;5124;-58
2022/10/31 05:00:59;;;;;;;;;;;;;;;;;;5000477;28;5164;-58
2022/10/31 05:03:25;;;;;;;;;;;;;;;;;;4973837;28;5105;-59
2022/10/31 05:05:50;;;;;;;;;;;;;;;;;;4973290;28;5029;-58
2022/10/31 05:08:15;;;;;;;;;;;;;;;;;;4973230;28;2964;-59
2022/10/31 05:10:40;;;;;;;;;;;;;;;;;;4973018;28;4963;-59
2022/10/31 05:13:06;;;;;;;;;;;;;;;;;;4988055;28;4867;-58
2022/10/31 05:15:31;;;;;;;;;;;;;;;;;;4991343;28;4449;-61
2022/10/31 05:18:01;;;;;;;;;;;;;;;;;;4973886;28;5994;-58
2022/10/31 05:20:28;;;;;;;;;;;;;;;;;;4975273;28;6065;-58
2022/10/31 05:22:53;;;;;;;;;;;;;;;;;;4991088;28;1705;-58
2022/10/31 05:25:19;;;;;;;;;;;;;;;;;;4974855;28;4951;-58
2022/10/31 05:27:55;;;;;;;;;;;;;;;;;;4991530;28;5085;-58
2022/10/31 05:30:21;;;;;;;;;;;;;;;;;;4975281;28;5059;-58
2022/10/31 05:32:47;;;;;;;;;;;;;;;;;;4971033;28;5040;-58
2022/10/31 05:35:13;;;;;;;;;;;;;;;;;;4972932;28;874;-58
2022/10/31 05:37:39;;;;;;;;;;;;;;;;;;4980072;28;4913;-57
2022/10/31 05:40:12;;;;;;;;;;;;;;;;;;4988640;28;5128;-57
2022/10/31 05:42:44;;;;;;;;;;;;;;;;;;4991094;28;5113;-58
2022/10/31 05:45:10;;;;;;;;;;;;;;;;;;4991532;28;4612;-58
2022/10/31 05:47:35;;;;;;;;;;;;;;;;;;4990862;28;4499;-59
2022/10/31 05:50:00;;;;;;;;;;;;;;;;;;4991627;28;970;-59
2022/10/31 05:52:26;;;;;;;;;;;;;;;;;;4973545;28;5003;-59
2022/10/31 05:54:51;;;;;;;;;;;;;;;;;;4993068;28;4967;-59
2022/10/31 05:57:22;;;;;;;;;;;;;;;;;;5001582;28;5183;-59
2022/10/31 05:59:48;;;;;;;;;;;;;;;;;;5010946;28;5075;-58
2022/10/31 06:02:13;;;;;;;;;;;;;;;;;;4983984;28;1719;-58
2022/10/31 06:04:38;;;;;;;;;;;;;;;;;;4990860;28;5067;-59
2022/10/31 06:07:03;;;;;;;;;;;;;;;;;;4974106;28;5027;-59
2022/10/31 06:09:33;;;;;;;;;;;;;;;;;;4989754;28;4730;-58
2022/10/31 06:11:59;;;;;;;;;;;;;;;;;;4976883;28;5567;-58
2022/10/31 06:14:24;;;;;;;;;;;;;;;;;;4965844;28;5142;-58
2022/10/31 06:16:49;;;;;;;;;;;;;;;;;;4958432;28;975;-58
2022/10/31 06:25:20;;;;;;;;;;;;;;;;;;4995270;28;4485;-58
2022/10/31 06:30:47;;;;;;;;;;;;;;;;;;4994845;28;4884;-58
2022/10/31 06:36:16;;;;;;;;;;;;;;;;;;4994937;28;4937;-58
2022/10/31 06:44:46;;;;;;;;;;;;;;;;;;4994434;28;5075;-58
2022/10/31 06:50:14;;;;;;;;;;;;;;;;;;4975739;28;5193;-57
2022/10/31 06:52:39;;;;;;;;;;;;;;;;;;4975306;28;1154;-57
2022/10/31 06:58:08;;;;;;;;;;;;;;;;;;4979889;28;4634;-58
2022/10/31 07:00:33;;;;;;;;;;;;;;;;;;4983479;28;5044;-59
2022/10/31 07:02:59;;;;;;;;;;;;;;;;;;4971337;28;5391;-58
2022/10/31 07:05:25;;;;;;;;;;;;;;;;;;4969556;28;5226;-59
2022/10/31 07:07:57;;;;;;;;;;;;;;;;;;4989197;28;3198;-58
2022/10/31 07:10:22;;;;;;;;;;;;;;;;;;4991189;28;5025;-57
2022/10/31 07:12:47;;;;;;;;;;;;;;;;;;4966766;28;5016;-56
2022/10/31 07:15:13;;;;;;;;;;;;;;;;;;4990724;28;4490;-57
2022/10/31 07:17:38;;;;;;;;;;;;;;;;;;4989674;28;4582;-57
2022/10/31 07:20:04;;;;;;;;;;;;;;;;;;4989942;28;4557;-57
2022/10/31 07:22:33;;;;;;;;;;;;;;;;;;4971195;28;5122;-58
2022/10/31 07:24:59;;;;;;;;;;;;;;;;;;4971116;28;4776;-58
2022/10/31 07:27:37;;;;;;;;;;;;;;;;;;4971408;28;4928;-58
2022/10/31 07:30:02;;;;;;;;;;;;;;;;;;4969957;28;4646;-59
2022/10/31 07:32:27;;;;;;;;;;;;;;;;;;4971374;28;4607;-58
2022/10/31 07:34:53;;;;;;;;;;;;;;;;;;4973713;28;977;-58
2022/10/31 07:37:18;;;;;;;;;;;;;;;;;;4990022;28;5111;-59
2022/10/31 07:39:43;;;;;;;;;;;;;;;;;;4988843;28;4875;-58
2022/10/31 07:42:08;;;;;;;;;;;;;;;;;;4983721;28;5071;-58
2022/10/31 07:44:34;;;;;;;;;;;;;;;;;;4990111;28;5040;-58
2022/10/31 07:46:59;;;;;;;;;;;;;;;;;;5005104;28;1370;-57
2022/10/31 07:49:38;;;;;;;;;;;;;;;;;;5010291;28;4481;-58
2022/10/31 07:52:03;;;;;;;;;;;;;;;;;;5011882;28;5043;-57
2022/10/31 07:54:28;;;;;;;;;;;;;;;;;;5013178;28;5041;-58
2022/10/31 07:56:54;;;;;;;;;;;;;;;;;;5011026;28;5134;-58
2022/10/31 07:59:19;;;;;;;;;;;;;;;;;;5013873;28;5029;-58
2022/10/31 08:01:44;;;;;;;;;;;;;;;;;;5012984;28;2860;-58
2022/10/31 08:04:09;;;;;;;;;;;;;;;;;;5013663;28;5077;-58
2022/10/31 08:06:35;;;;;;;;;;;;;;;;;;5012673;28;4826;-61
2022/10/31 08:09:00;;;;;;;;;;;;;;;;;;5012545;28;4920;-58
2022/10/31 08:11:25;;;;;;;;;;;;;;;;;;5011808;28;5105;-58
2022/10/31 08:14:25;;;;;;;;;;;;;;;;;;5006026;28;3282;-58
2022/10/31 08:16:50;;;;;;;;;;;;;;;;;;4996208;28;6181;-58
2022/10/31 08:19:15;;;;;;;;;;;;;;;;;;5007513;28;5083;-57
2022/10/31 08:21:40;;;;;;;;;;;;;;;;;;5005305;28;4972;-58
2022/10/31 08:24:07;;;;;;;;;;;;;;;;;;5012295;28;5140;-58
2022/10/31 08:26:33;;;;;;;;;;;;;;;;;;5014035;28;4445;-57
2022/10/31 08:28:58;;;;;;;;;;;;;;;;;;4999633;28;3092;-57
2022/10/31 08:31:25;;;;;;;;;;;;;;;;;;4994173;28;5149;-57
2022/10/31 08:33:51;;;;;;;;;;;;;;;;;;5012488;28;4542;-58
2022/10/31 08:36:18;;;;;;;;;;;;;;;;;;5012510;28;5067;-62
2022/10/31 08:38:43;;;;;;;;;;;;;;;;;;5013264;28;4973;-58
2022/10/31 08:41:09;;;;;;;;;;;;;;;;;;5012674;28;943;-58
2022/10/31 08:43:34;;;;;;;;;;;;;;;;;;4994149;28;4905;-58
2022/10/31 08:45:59;;;;;;;;;;;;;;;;;;4980571;28;5095;-58
2022/10/31 08:48:24;;;;;;;;;;;;;;;;;;5001270;28;4455;-58
2022/10/31 08:53:52;;;;;;;;;;;;;;;;;;5023657;28;5075;-57
2022/10/31 08:56:17;;;;;;;;;;;;;;;;;;5031804;28;4877;-59
2022/10/31 08:58:43;;;;;;;;;;;;;;;;;;5032882;28;996;-57
2022/10/31 09:01:08;;;;;;;;;;;;;;;;;;5016929;28;4963;-57
2022/10/31 09:03:33;;;;;;;;;;;;;;;;;;5011776;28;4935;-61
2022/10/31 09:09:01;;;;;;;;;;;;;;;;;;5010713;28;5049;-58
2022/10/31 09:11:27;;;;;;;;;;;;;;;;;;5011705;28;5128;-58
2022/10/31 09:13:52;;;;;;;;;;;;;;;;;;5011329;28;2456;-61
2022/10/31 09:16:17;;;;;;;;;;;;;;;;;;5009615;28;5073;-57
2022/10/31 09:18:42;;;;;;;;;;;;;;;;;;5011431;28;4860;-58
2022/10/31 09:21:08;;;;;;;;;;;;;;;;;;5007788;28;5078;-59
2022/10/31 09:23:33;;;;;;;;;;;;;;;;;;5011968;28;5102;-59
2022/10/31 09:25:59;;;;;;;;;;;;;;;;;;4994767;28;1272;-58
2022/10/31 09:28:24;;;;;;;;;;;;;;;;;;5011132;28;4705;-58
2022/10/31 09:30:50;;;;;;;;;;;;;;;;;;5002619;28;4973;-59
2022/10/31 09:33:15;;;;;;;;;;;;;;;;;;5000936;28;5019;-58
2022/10/31 09:35:41;;;;;;;;;;;;;;;;;;5010975;28;4621;-58
2022/10/31 09:38:08;;;;;;;;;;;;;;;;;;5011838;28;1066;-58
2022/10/31 09:40:40;;;;;;;;;;;;;;;;;;4993152;28;4952;-58
2022/10/31 09:43:11;;;;;;;;;;;;;;;;;;4975915;28;4715;-58
2022/10/31 09:45:49;;;;;;;;;;;;;;;;;;5009445;28;5180;-59
2022/10/31 09:48:17;;;;;;;;;;;;;;;;;;4979069;28;5012;-58
2022/10/31 09:50:47;;;;;;;;;;;;;;;;;;4988386;28;5012;-57
2022/10/31 09:53:21;;;;;;;;;;;;;;;;;;4992432;28;3172;-58
2022/10/31 09:55:47;;;;;;;;;;;;;;;;;;4989945;28;4939;-57
2022/10/31 09:58:32;;;;;;;;;;;;;;;;;;4970009;28;5066;-57
2022/10/31 10:00:58;;;;;;;;;;;;;;;;;;4956736;28;4726;-58
2022/10/31 10:03:23;;;;;;;;;;;;;;;;;;4973204;28;4914;-57
2022/10/31 10:05:51;;;;;;;;;;;;;;;;;;4973765;28;5811;-57
2022/10/31 10:08:20;;;;;;;;;;;;;;;;;;4974665;28;1803;-57
2022/10/31 10:10:49;;;;;;;;;;;;;;;;;;4973932;28;5458;-58
2022/10/31 10:13:30;;;;;;;;;;;;;;;;;;4969198;28;5105;-57
2022/10/31 10:16:01;;;;;;;;;;;;;;;;;;4989998;28;5448;-57
2022/10/31 10:18:37;;;;;;;;;;;;;;;;;;4980557;28;4824;-58
2022/10/31 10:21:02;;;;;;;;;;;;;;;;;;4990443;28;5578;-59
2022/10/31 10:23:39;;;;;;;;;;;;;;;;;;4991743;28;5044;-58
2022/10/31 10:26:26;;;;;;;;;;;;;;;;;;4993556;28;975;-57
2022/10/31 10:31:54;;;;;;;;;;;;;;;;;;4980690;28;4653;-57
2022/10/31 10:34:36;;;;;;;;;;;;;;;;;;4991680;28;5004;-58
2022/10/31 10:37:03;;;;;;;;;;;;;;;;;;4988855;28;5727;-61
2022/10/31 10:40:02;;;;;;;;;;;;;;;;;;4988430;28;5022;-56
2022/10/31 10:48:21;;;;;;;;;;;;;;;;;;4992255;28;4974;-57
2022/10/31 10:50:50;;;;;;;;;;;;;;;;;;4970858;28;4992;-61
2022/10/31 10:53:21;;;;;;;;;;;;;;;;;;4991327;28;1972;-57
2022/10/31 10:55:57;;;;;;;;;;;;;;;;;;4989202;28;5237;-57
2022/10/31 10:58:38;;;;;;;;;;;;;;;;;;4981957;28;4879;-57
2022/10/31 11:01:19;;;;;;;;;;;;;;;;;;4983971;28;5054;-57
2022/10/31 11:06:57;;;;;;;;;;;;;;;;;;4989643;28;5145;-57
2022/10/31 11:09:32;;;;;;;;;;;;;;;;;;4990913;28;4463;-57
2022/10/31 11:11:57;;;;;;;;;;;;;;;;;;4973088;28;5113;-57
2022/10/31 11:14:23;;;;;;;;;;;;;;;;;;4972234;28;4486;-57
2022/10/31 11:16:54;;;;;;;;;;;;;;;;;;4957515;28;1031;-57
2022/10/31 11:19:20;;;;;;;;;;;;;;;;;;4955534;28;5135;-57
2022/10/31 11:21:45;;;;;;;;;;;;;;;;;;4972403;28;4919;-57
2022/10/31 11:24:11;;;;;;;;;;;;;;;;;;4989085;28;4853;-57
2022/10/31 11:26:37;;;;;;;;;;;;;;;;;;4988836;28;5112;-59
2022/10/31 11:29:03;;;;;;;;;;;;;;;;;;4993264;28;1084;-59
2022/10/31 11:31:28;;;;;;;;;;;;;;;;;;4981970;28;5415;-60
2022/10/31 11:34:04;;;;;;;;;;;;;;;;;;4972964;28;5028;-57
2022/10/31 11:36:34;;;;;;;;;;;;;;;;;;4973172;28;5810;-57
2022/10/31 11:38:59;;;;;;;;;;;;;;;;;;4979956;28;5129;-60
2022/10/31 11:41:25;;;;;;;;;;;;;;;;;;4973539;28;4925;-57
2022/10/31 11:43:56;;;;;;;;;;;;;;;;;;4957448;28;1906;-57
2022/10/31 11:46:22;;;;;;;;;;;;;;;;;;4959740;28;4499;-57
2022/10/31 11:48:52;;;;;;;;;;;;;;;;;;5004248;28;4617;-58
2022/10/31 11:51:21;;;;;;;;;;;;;;;;;;5000100;28;5176;-60
2022/10/31 11:53:51;;;;;;;;;;;;;;;;;;5013098;28;4582;-56
2022/10/31 11:56:16;;;;;;;;;;;;;;;;;;4992164;28;3080;-58
2022/10/31 11:58:41;;;;;;;;;;;;;;;;;;5007817;28;4425;-58
2022/10/31 12:01:08;;;;;;;;;;;;;;;;;;4990886;28;4702;-58
2022/10/31 12:03:45;;;;;;;;;;;;;;;;;;4995164;28;4998;-58
2022/10/31 12:06:20;;;;;;;;;;;;;;;;;;5012471;28;5022;-58
2022/10/31 12:08:46;;;;;;;;;;;;;;;;;;5012652;28;4822;-58
2022/10/31 12:11:20;;;;;;;;;;;;;;;;;;5012325;28;1937;-56
2022/10/31 12:13:48;;;;;;;;;;;;;;;;;;4993139;28;4602;-58
2022/10/31 12:16:16;;;;;;;;;;;;;;;;;;5002078;28;5238;-58
2022/10/31 12:18:41;;;;;;;;;;;;;;;;;;4994925;28;4843;-57
2022/10/31 12:21:07;;;;;;;;;;;;;;;;;;5012241;28;5013;-59
2022/10/31 12:23:35;;;;;;;;;;;;;;;;;;5012584;28;4476;-60
2022/10/31 12:26:16;;;;;;;;;;;;;;;;;;5013624;28;1034;-57
2022/10/31 12:28:45;;;;;;;;;;;;;;;;;;4996416;28;4582;-58
2022/10/31 12:31:29;;;;;;;;;;;;;;;;;;4982080;28;4926;-58
2022/10/31 12:34:10;;;;;;;;;;;;;;;;;;4992850;28;5029;-58
2022/10/31 12:39:32;;;;;;;;;;;;;;;;;;4993096;28;5183;-57
2022/10/31 12:42:23;;;;;;;;;;;;;;;;;;4974957;28;5231;-57
2022/10/31 12:44:52;;;;;;;;;;;;;;;;;;4992330;28;5141;-60
2022/10/31 12:47:35;;;;;;;;;;;;;;;;;;5003017;28;4952;-59
2022/10/31 12:50:20;;;;;;;;;;;;;;;;;;4995573;28;926;-61
2022/10/31 12:53:04;;;;;;;;;;;;;;;;;;5012745;28;4626;-58
2022/10/31 12:55:35;;;;;;;;;;;;;;;;;;5012718;28;4807;-57
2022/10/31 12:58:01;;;;;;;;;;;;;;;;;;5009766;28;5165;-58
2022/10/31 13:00:27;;;;;;;;;;;;;;;;;;5003866;28;4451;-57
2022/10/31 13:03:01;;;;;;;;;;;;;;;;;;4997054;28;5155;-57
2022/10/31 13:05:28;;;;;;;;;;;;;;;;;;5011605;28;4452;-58
2022/10/31 13:07:57;;;;;;;;;;;;;;;;;;5012674;28;991;-58
2022/10/31 13:10:34;;;;;;;;;;;;;;;;;;5010880;28;4619;-59
2022/10/31 13:13:05;;;;;;;;;;;;;;;;;;5011257;28;4607;-58
2022/10/31 13:15:32;;;;;;;;;;;;;;;;;;5006470;28;5282;-58
2022/10/31 13:17:59;;;;;;;;;;;;;;;;;;4994538;28;5074;-58
2022/10/31 13:20:24;;;;;;;;;;;;;;;;;;5011066;28;5292;-58
2022/10/31 13:23:07;;;;;;;;;;;;;;;;;;4995044;28;1069;-58
2022/10/31 13:25:35;;;;;;;;;;;;;;;;;;5011003;28;4610;-58
2022/10/31 13:28:05;;;;;;;;;;;;;;;;;;5011598;28;5155;-57
2022/10/31 13:30:33;;;;;;;;;;;;;;;;;;5004971;28;4969;-57
2022/10/31 13:33:05;;;;;;;;;;;;;;;;;;4974333;28;5494;-56
2022/10/31 13:35:49;;;;;;;;;;;;;;;;;;5009954;28;5491;-58
2022/10/31 13:38:20;;;;;;;;;;;;;;;;;;5011839;28;1112;-58
2022/10/31 13:40:48;;;;;;;;;;;;;;;;;;4993770;28;4601;-57
2022/10/31 13:43:52;;;;;;;;;;;;;;;;;;5010632;28;4463;-60
2022/10/31 13:46:50;;;;;;;;;;;;;;;;;;4929315;29;5013;-58
2022/10/31 13:49:26;;;;;;;;;;;;;;;;;;4952485;28;5205;-58
2022/10/31 13:51:54;;;;;;;;;;;;;;;;;;4992583;28;5023;-58
2022/10/31 13:54:23;;;;;;;;;;;;;;;;;;5010462;28;5176;-59
2022/10/31 13:56:49;;;;;;;;;;;;;;;;;;5011291;28;4640;-58
2022/10/31 13:59:19;;;;;;;;;;;;;;;;;;5010671;28;950;-58
2022/10/31 14:01:59;;;;;;;;;;;;;;;;;;4996532;28;5028;-58
2022/10/31 14:04:37;;;;;;;;;;;;;;;;;;4991719;28;5061;-59
2022/10/31 14:07:10;;;;;;;;;;;;;;;;;;4973848;28;5077;-59
2022/10/31 14:09:39;;;;;;;;;;;;;;;;;;5002305;28;5108;-58
2022/10/31 14:12:27;;;;;;;;;;;;;;;;;;5010301;28;5058;-58
2022/10/31 14:14:56;;;;;;;;;;;;;;;;;;5001782;28;5019;-58
2022/10/31 14:17:26;;;;;;;;;;;;;;;;;;5020364;28;4544;-58
2022/10/31 14:20:16;;;;;;;;;;;;;;;;;;5009940;28;4948;-58
2022/10/31 14:22:42;;;;;;;;;;;;;;;;;;5011246;28;4771;-58
2022/10/31 14:25:25;;;;;;;;;;;;;;;;;;5009814;28;5064;-58
2022/10/31 14:27:52;;;;;;;;;;;;;;;;;;4992607;28;5284;-59
2022/10/31 14:30:18;;;;;;;;;;;;;;;;;;5008282;28;5184;-59
2022/10/31 14:32:49;;;;;;;;;;;;;;;;;;4991480;28;4722;-58
2022/10/31 14:35:15;;;;;;;;;;;;;;;;;;4991667;28;1087;-58
2022/10/31 14:37:52;;;;;;;;;;;;;;;;;;4998388;28;5033;-59
2022/10/31 14:40:36;;;;;;;;;;;;;;;;;;5010408;28;4906;-58
2022/10/31 14:43:08;;;;;;;;;;;;;;;;;;5010510;28;4996;-57
2022/10/31 14:45:33;;;;;;;;;;;;;;;;;;5019502;28;4638;-57
2022/10/31 14:48:01;;;;;;;;;;;;;;;;;;4991434;28;5052;-58
2022/10/31 14:50:29;;;;;;;;;;;;;;;;;;5000764;28;4756;-58
2022/10/31 14:53:01;;;;;;;;;;;;;;;;;;5004061;28;2976;-58
2022/10/31 14:55:26;;;;;;;;;;;;;;;;;;5003197;28;4876;-56
2022/10/31 14:58:13;;;;;;;;;;;;;;;;;;5010106;28;5108;-56
2022/10/31 15:00:56;;;;;;;;;;;;;;;;;;4992141;28;4451;-58
2022/10/31 15:03:26;;;;;;;;;;;;;;;;;;5013811;28;4643;-57
2022/10/31 15:05:52;;;;;;;;;;;;;;;;;;4996621;28;4670;-58
2022/10/31 15:08:26;;;;;;;;;;;;;;;;;;4993191;28;4554;-59
2022/10/31 15:14:06;;;;;;;;;;;;;;;;;;5007694;28;4773;-58
2022/10/31 15:16:35;;;;;;;;;;;;;;;;;;4983272;28;4987;-58
2022/10/31 15:19:04;;;;;;;;;;;;;;;;;;5034030;28;5061;-58
2022/10/31 15:21:29;;;;;;;;;;;;;;;;;;5019874;28;5102;-58
2022/10/31 15:23:56;;;;;;;;;;;;;;;;;;5013560;28;5008;-56
2022/10/31 15:26:22;;;;;;;;;;;;;;;;;;4980381;28;4875;-57
2022/10/31 15:29:07;;;;;;;;;;;;;;;;;;4986363;28;3209;-58
2022/10/31 15:31:32;;;;;;;;;;;;;;;;;;5005074;28;4926;-59
2022/10/31 15:33:59;;;;;;;;;;;;;;;;;;4996473;28;5139;-58
2022/10/31 15:42:34;;;;;;;;;;;;;;;;;;5017912;28;4571;-58
2022/10/31 15:45:01;;;;;;;;;;;;;;;;;;5014020;28;4506;-60
2022/10/31 15:47:33;;;;;;;;;;;;;;;;;;5012714;28;4978;-60
2022/10/31 15:53:15;;;;;;;;;;;;;;;;;;4998376;28;4604;-59
2022/10/31 16:01:55;;;;;;;;;;;;;;;;;;4998084;28;4577;-59
2022/10/31 16:07:23;;;;;;;;;;;;;;;;;;4996309;28;5115;-59
2022/10/31 16:12:51;;;;;;;;;;;;;;;;;;4996857;28;4468;-58
2022/10/31 16:21:37;;;;;;;;;;;;;;;;;;4977915;28;4491;-58
2022/10/31 16:27:05;;;;;;;;;;;;;;;;;;4997034;28;4983;-58
2022/10/31 16:29:43;;;;;;;;;;;;;;;;;;4979099;28;4938;-59
2022/10/31 16:44:19;;;;;;;;;;;;;;;;;;4977551;28;5183;-61
2022/10/31 16:47:09;;;;;;;;;;;;;;;;;;4979083;28;2165;-58
2022/10/31 16:50:00;;;;;;;;;;;;;;;;;;4977921;28;5045;-58
2022/10/31 16:52:25;;;;;;;;;;;;;;;;;;4980891;28;4976;-59
2022/10/31 16:54:51;;;;;;;;;;;;;;;;;;4984447;28;5102;-58
2022/10/31 16:57:19;;;;;;;;;;;;;;;;;;4991176;28;4980;-60
2022/10/31 17:02:48;;;;;;;;;;;;;;;;;;4977162;28;5162;-59
2022/10/31 17:05:39;;;;;;;;;;;;;;;;;;4958725;28;2627;-59
2022/10/31 17:08:05;;;;;;;;;;;;;;;;;;4990221;28;5383;-61
2022/10/31 17:10:30;;;;;;;;;;;;;;;;;;4997300;28;4701;-60
2022/10/31 17:12:56;;;;;;;;;;;;;;;;;;5002331;28;5138;-61
2022/10/31 17:15:25;;;;;;;;;;;;;;;;;;5009652;28;5144;-61
2022/10/31 17:18:10;;;;;;;;;;;;;;;;;;4997301;28;4742;-59
2022/10/31 17:20:36;;;;;;;;;;;;;;;;;;4998680;28;4540;-59
2022/10/31 17:23:01;;;;;;;;;;;;;;;;;;4978219;28;3234;-59
2022/10/31 17:25:28;;;;;;;;;;;;;;;;;;4984247;28;4842;-58
2022/10/31 17:27:53;;;;;;;;;;;;;;;;;;4989719;28;4620;-60
2022/10/31 17:30:35;;;;;;;;;;;;;;;;;;4972444;28;4739;-59
2022/10/31 17:33:00;;;;;;;;;;;;;;;;;;4954339;28;4986;-58
2022/10/31 17:35:26;;;;;;;;;;;;;;;;;;4971426;28;4946;-59
2022/10/31 17:38:02;;;;;;;;;;;;;;;;;;4971787;28;1102;-60
2022/10/31 17:40:28;;;;;;;;;;;;;;;;;;4971935;28;4809;-60
2022/10/31 17:42:54;;;;;;;;;;;;;;;;;;4973395;28;5191;-59
2022/10/31 17:45:19;;;;;;;;;;;;;;;;;;4990812;28;4507;-60
2022/10/31 17:47:45;;;;;;;;;;;;;;;;;;4975118;28;5090;-59
2022/10/31 17:50:11;;;;;;;;;;;;;;;;;;5012402;28;1030;-60
2022/10/31 17:52:36;;;;;;;;;;;;;;;;;;5010813;28;4977;-59
2022/10/31 17:55:01;;;;;;;;;;;;;;;;;;5009509;28;4813;-61
2022/10/31 17:57:33;;;;;;;;;;;;;;;;;;5001530;28;4507;-59
2022/10/31 18:00:02;;;;;;;;;;;;;;;;;;4992703;28;4960;-58
2022/10/31 18:02:28;;;;;;;;;;;;;;;;;;5006756;28;4922;-60
2022/10/31 18:08:13;;;;;;;;;;;;;;;;;;5010785;28;4754;-59
2022/10/31 18:13:54;;;;;;;;;;;;;;;;;;5007506;28;5760;-60
2022/10/31 18:16:19;;;;;;;;;;;;;;;;;;5011342;28;4464;-59
2022/10/31 18:18:48;;;;;;;;;;;;;;;;;;4976449;28;5123;-59
2022/10/31 18:21:14;;;;;;;;;;;;;;;;;;5010354;28;4856;-59
2022/10/31 18:23:39;;;;;;;;;;;;;;;;;;4987847;28;5176;-60
2022/10/31 18:26:04;;;;;;;;;;;;;;;;;;4997874;28;3256;-58
2022/10/31 18:28:29;;;;;;;;;;;;;;;;;;5008666;28;5091;-58
2022/10/31 18:30:57;;;;;;;;;;;;;;;;;;5005672;28;5017;-58
2022/10/31 18:33:30;;;;;;;;;;;;;;;;;;5006357;28;4691;-59
2022/10/31 18:35:56;;;;;;;;;;;;;;;;;;5010515;28;5106;-59
2022/10/31 18:38:31;;;;;;;;;;;;;;;;;;5017222;28;5060;-59
2022/10/31 18:40:56;;;;;;;;;;;;;;;;;;5010926;28;1043;-59
2022/10/31 18:43:21;;;;;;;;;;;;;;;;;;5009739;28;5293;-58
2022/10/31 18:45:55;;;;;;;;;;;;;;;;;;5009469;28;5191;-59
2022/10/31 18:48:33;;;;;;;;;;;;;;;;;;5009205;28;5084;-59
2022/10/31 18:51:02;;;;;;;;;;;;;;;;;;4985847;28;4504;-59
2022/10/31 18:53:27;;;;;;;;;;;;;;;;;;4978177;28;5059;-59
2022/10/31 18:55:53;;;;;;;;;;;;;;;;;;4972296;28;2266;-60
2022/10/31 18:58:18;;;;;;;;;;;;;;;;;;4982123;28;5092;-59
2022/10/31 19:00:44;;;;;;;;;;;;;;;;;;4988317;28;4620;-60
2022/10/31 19:03:09;;;;;;;;;;;;;;;;;;4989685;28;5058;-59
2022/10/31 19:05:35;;;;;;;;;;;;;;;;;;4989833;28;5204;-59
2022/10/31 19:08:00;;;;;;;;;;;;;;;;;;4988658;28;2805;-59
2022/10/31 19:10:25;;;;;;;;;;;;;;;;;;4986224;28;4976;-60
2022/10/31 19:12:50;;;;;;;;;;;;;;;;;;5003544;28;4457;-59
2022/10/31 19:15:16;;;;;;;;;;;;;;;;;;5010601;28;5381;-59
2022/10/31 19:17:41;;;;;;;;;;;;;;;;;;4994398;28;5056;-60
2022/10/31 19:20:07;;;;;;;;;;;;;;;;;;4990894;28;4635;-60
2022/10/31 19:22:32;;;;;;;;;;;;;;;;;;4990780;28;4637;-60
2022/10/31 19:24:57;;;;;;;;;;;;;;;;;;4992530;28;5135;-59
2022/10/31 19:27:25;;;;;;;;;;;;;;;;;;4990889;28;5157;-59
2022/10/31 19:29:50;;;;;;;;;;;;;;;;;;4991142;28;5090;-59
2022/10/31 19:32:15;;;;;;;;;;;;;;;;;;4973396;28;3011;-59
2022/10/31 19:34:50;;;;;;;;;;;;;;;;;;4991189;28;4941;-58
2022/10/31 19:37:16;;;;;;;;;;;;;;;;;;4971090;28;5118;-60
2022/10/31 19:39:41;;;;;;;;;;;;;;;;;;4972432;28;5003;-59
2022/10/31 19:42:06;;;;;;;;;;;;;;;;;;4990887;28;5165;-60
2022/10/31 19:44:32;;;;;;;;;;;;;;;;;;4971843;28;4941;-60
2022/10/31 19:46:57;;;;;;;;;;;;;;;;;;4991802;28;1169;-59
2022/10/31 19:49:22;;;;;;;;;;;;;;;;;;4994633;28;4626;-59
2022/10/31 19:51:48;;;;;;;;;;;;;;;;;;4992525;28;4598;-60
2022/10/31 19:54:13;;;;;;;;;;;;;;;;;;4994178;28;5069;-60
2022/10/31 19:56:38;;;;;;;;;;;;;;;;;;4976674;28;4681;-60
2022/10/31 19:59:32;;;;;;;;;;;;;;;;;;4995762;28;1115;-59
2022/10/31 20:01:57;;;;;;;;;;;;;;;;;;4984677;28;5305;-60
2022/10/31 20:04:22;;;;;;;;;;;;;;;;;;4976005;28;5035;-60
2022/10/31 20:06:47;;;;;;;;;;;;;;;;;;4994352;28;4465;-59
2022/10/31 20:09:13;;;;;;;;;;;;;;;;;;4993205;28;5022;-59
2022/10/31 20:11:38;;;;;;;;;;;;;;;;;;4976387;28;5052;-59
2022/10/31 20:14:04;;;;;;;;;;;;;;;;;;4977052;28;1107;-59
2022/10/31 20:16:29;;;;;;;;;;;;;;;;;;4988990;28;5306;-59
2022/10/31 20:18:54;;;;;;;;;;;;;;;;;;4974353;28;5229;-59
2022/10/31 20:21:20;;;;;;;;;;;;;;;;;;4970944;28;5048;-60
2022/10/31 20:24:02;;;;;;;;;;;;;;;;;;4975256;28;4932;-59
2022/10/31 20:26:28;;;;;;;;;;;;;;;;;;4976358;28;4438;-59
2022/10/31 20:28:57;;;;;;;;;;;;;;;;;;4991728;28;3260;-59
2022/10/31 20:31:23;;;;;;;;;;;;;;;;;;4985662;28;5021;-59
2022/10/31 20:33:48;;;;;;;;;;;;;;;;;;4974221;28;4737;-59
2022/10/31 20:36:14;;;;;;;;;;;;;;;;;;4992563;28;4948;-61